Time;durP1;ratioP1;P1;durP2;ratioP2;P2;SDS_P1;SDS_P2;PMS_P1;PMS_P2;Temp;Humidity;BMP_temperature;BMP_pressure;BME280_temperature;BME280_humidity;BME280_pressure;Samples;Min_cycle;Max_cycle;Signal;HPM_P1;HPM_P2
2023/10/31 00:02:24;;;;;;;22.20;14.67;;;;;;;;;;5075031;28;20471;-81
2023/10/31 00:04:52;;;;;;;18.03;14.20;;;;;;;;;;5075439;28;20988;-81
2023/10/31 00:07:18;;;;;;;20.90;16.47;;;;;;;;;;5075177;28;20473;-81
2023/10/31 00:09:45;;;;;;;17.50;14.40;;;;;;;;;;5075509;28;20443;-81
2023/10/31 00:12:11;;;;;;;17.30;13.10;;;;;;;;;;5073447;28;20446;-82
2023/10/31 00:14:37;;;;;;;21.67;14.40;;;;;;;;;;5074093;28;20462;-81
2023/10/31 00:17:04;;;;;;;20.13;13.67;;;;;;;;;;5073538;28;20975;-81
2023/10/31 00:19:30;;;;;;;16.63;14.53;;;;;;;;;;5075187;28;20485;-82
2023/10/31 00:21:58;;;;;;;20.57;14.20;;;;;;;;;;5074976;28;20433;-81
2023/10/31 00:24:25;;;;;;;20.50;15.20;;;;;;;;;;5075269;28;20466;-82
2023/10/31 00:26:52;;;;;;;17.90;14.87;;;;;;;;;;5074611;28;20520;-81
2023/10/31 00:29:18;;;;;;;18.47;15.10;;;;;;;;;;5075000;28;20417;-81
2023/10/31 00:31:45;;;;;;;17.43;13.77;;;;;;;;;;5072218;28;20962;-81
2023/10/31 00:34:11;;;;;;;22.63;15.60;;;;;;;;;;5074280;28;20449;-81
2023/10/31 00:36:38;;;;;;;22.27;16.23;;;;;;;;;;5073114;28;20425;-81
2023/10/31 00:39:05;;;;;;;21.90;15.13;;;;;;;;;;5075122;28;20482;-82
2023/10/31 00:41:32;;;;;;;24.40;16.00;;;;;;;;;;5073071;28;20426;-81
2023/10/31 00:43:58;;;;;;;21.73;15.50;;;;;;;;;;5074292;28;20466;-81
2023/10/31 00:46:25;;;;;;;23.70;16.37;;;;;;;;;;5071515;28;20434;-81
2023/10/31 00:48:51;;;;;;;22.23;15.97;;;;;;;;;;5073460;28;20455;-81
2023/10/31 00:51:18;;;;;;;21.70;15.27;;;;;;;;;;5074708;28;20397;-82
2023/10/31 00:53:44;;;;;;;22.33;15.83;;;;;;;;;;5074880;28;20433;-81
2023/10/31 00:56:12;;;;;;;28.60;16.33;;;;;;;;;;5075076;28;20435;-81
2023/10/31 00:58:38;;;;;;;21.13;14.83;;;;;;;;;;5074309;28;20482;-81
2023/10/31 01:01:04;;;;;;;20.60;15.23;;;;;;;;;;5074573;28;20420;-81
2023/10/31 01:03:31;;;;;;;19.23;15.33;;;;;;;;;;5073068;28;20474;-82
2023/10/31 01:05:57;;;;;;;18.60;14.57;;;;;;;;;;5074401;28;20421;-81
2023/10/31 01:08:24;;;;;;;20.30;14.20;;;;;;;;;;5074572;28;20445;-81
2023/10/31 01:10:50;;;;;;;22.53;15.97;;;;;;;;;;5074198;28;20452;-81
2023/10/31 01:13:18;;;;;;;19.03;14.40;;;;;;;;;;5073091;28;20502;-81
2023/10/31 01:15:45;;;;;;;13.90;11.70;;;;;;;;;;5074356;28;20439;-82
2023/10/31 01:18:11;;;;;;;19.63;14.30;;;;;;;;;;5073511;28;20460;-81
2023/10/31 01:20:38;;;;;;;29.93;16.47;;;;;;;;;;5074772;28;20439;-81
2023/10/31 01:23:04;;;;;;;15.53;11.70;;;;;;;;;;5074471;28;20475;-81
2023/10/31 01:25:30;;;;;;;16.40;11.77;;;;;;;;;;5074127;28;20454;-81
2023/10/31 01:27:57;;;;;;;14.50;11.97;;;;;;;;;;5072527;28;21015;-81
2023/10/31 01:30:24;;;;;;;14.30;11.07;;;;;;;;;;5074622;28;20804;-81
2023/10/31 01:32:51;;;;;;;12.50;11.10;;;;;;;;;;5072360;28;20467;-81
2023/10/31 01:35:17;;;;;;;14.60;11.57;;;;;;;;;;5074132;28;20445;-82
2023/10/31 01:37:44;;;;;;;14.50;11.73;;;;;;;;;;5074142;28;20471;-82
2023/10/31 01:40:13;;;;;;;17.90;12.93;;;;;;;;;;5073998;28;20482;-82
2023/10/31 01:42:39;;;;;;;16.60;11.50;;;;;;;;;;5073222;28;21030;-82
2023/10/31 01:45:06;;;;;;;15.17;12.13;;;;;;;;;;5073011;28;20437;-82
2023/10/31 01:47:34;;;;;;;18.73;13.40;;;;;;;;;;5073802;28;20437;-81
2023/10/31 01:50:01;;;;;;;15.93;12.10;;;;;;;;;;5074507;28;20421;-80
2023/10/31 01:52:27;;;;;;;15.73;12.73;;;;;;;;;;5072770;28;20441;-80
2023/10/31 01:54:55;;;;;;;13.20;11.80;;;;;;;;;;5074651;28;20429;-82
2023/10/31 01:57:22;;;;;;;16.10;12.33;;;;;;;;;;5074232;28;20459;-83
2023/10/31 01:59:49;;;;;;;15.97;13.30;;;;;;;;;;5074515;28;20481;-82
2023/10/31 02:02:16;;;;;;;15.70;11.70;;;;;;;;;;5073918;28;20988;-82
2023/10/31 02:04:45;;;;;;;17.20;11.30;;;;;;;;;;5074013;28;20459;-83
2023/10/31 02:07:11;;;;;;;17.00;11.57;;;;;;;;;;5073727;28;20449;-83
2023/10/31 02:09:38;;;;;;;21.33;14.23;;;;;;;;;;5072514;28;20442;-83
2023/10/31 02:12:04;;;;;;;17.77;12.60;;;;;;;;;;5073901;28;20462;-82
2023/10/31 02:14:30;;;;;;;18.43;14.40;;;;;;;;;;5074098;28;20459;-82
2023/10/31 02:16:57;;;;;;;20.60;13.70;;;;;;;;;;5071632;28;20484;-82
2023/10/31 02:19:23;;;;;;;23.00;13.90;;;;;;;;;;5072994;28;20895;-82
2023/10/31 02:21:51;;;;;;;17.07;13.90;;;;;;;;;;5073604;28;20520;-82
2023/10/31 02:24:18;;;;;;;19.60;12.90;;;;;;;;;;5072411;28;20472;-82
2023/10/31 02:26:44;;;;;;;25.33;14.60;;;;;;;;;;5073564;28;20462;-82
2023/10/31 02:29:10;;;;;;;20.47;14.40;;;;;;;;;;5074129;28;20489;-82
2023/10/31 02:31:37;;;;;;;23.10;16.57;;;;;;;;;;5073332;28;20453;-82
2023/10/31 02:34:03;;;;;;;25.30;15.07;;;;;;;;;;5074108;28;20459;-81
2023/10/31 02:36:30;;;;;;;26.87;16.90;;;;;;;;;;5073493;28;20439;-82
2023/10/31 02:38:56;;;;;;;23.10;16.33;;;;;;;;;;5073964;28;20814;-82
2023/10/31 02:41:23;;;;;;;21.73;16.13;;;;;;;;;;5073000;28;20453;-82
2023/10/31 02:43:49;;;;;;;21.40;15.73;;;;;;;;;;5072895;28;20438;-81
2023/10/31 02:46:16;;;;;;;29.37;16.00;;;;;;;;;;5073141;28;20443;-82
2023/10/31 02:48:42;;;;;;;26.77;17.67;;;;;;;;;;5073288;28;20939;-82
2023/10/31 02:51:09;;;;;;;24.20;16.30;;;;;;;;;;5072192;28;20436;-81
2023/10/31 02:53:36;;;;;;;26.47;17.77;;;;;;;;;;5071357;28;20457;-82
2023/10/31 02:56:04;;;;;;;26.57;19.37;;;;;;;;;;5075571;28;20418;-81
2023/10/31 02:58:30;;;;;;;29.40;19.00;;;;;;;;;;5075838;28;20441;-81
2023/10/31 03:00:57;;;;;;;26.80;18.00;;;;;;;;;;5076717;28;20431;-82
2023/10/31 03:03:23;;;;;;;32.07;19.00;;;;;;;;;;5076157;28;20452;-81
2023/10/31 03:05:49;;;;;;;32.80;20.67;;;;;;;;;;5075589;28;20439;-81
2023/10/31 03:08:20;;;;;;;28.83;19.50;;;;;;;;;;5058073;28;20487;-81
2023/10/31 03:10:49;;;;;;;28.00;20.73;;;;;;;;;;5076128;28;20467;-81
2023/10/31 03:13:17;;;;;;;30.97;19.77;;;;;;;;;;5075143;28;20469;-81
2023/10/31 03:15:43;;;;;;;29.77;19.60;;;;;;;;;;5076709;28;20435;-81
2023/10/31 03:18:09;;;;;;;31.97;19.07;;;;;;;;;;5076372;28;20445;-81
2023/10/31 03:20:36;;;;;;;27.20;19.07;;;;;;;;;;5076493;28;20820;-81
2023/10/31 03:23:02;;;;;;;35.97;21.90;;;;;;;;;;5076051;28;20437;-81
2023/10/31 03:25:29;;;;;;;39.77;21.47;;;;;;;;;;5076220;28;20462;-81
2023/10/31 03:27:55;;;;;;;33.17;21.60;;;;;;;;;;5075284;28;20441;-81
2023/10/31 03:30:23;;;;;;;32.63;21.50;;;;;;;;;;5076158;28;20799;-81
2023/10/31 03:32:50;;;;;;;34.40;21.20;;;;;;;;;;5075903;28;20466;-82
2023/10/31 03:35:16;;;;;;;32.17;20.07;;;;;;;;;;5074996;28;20466;-81
2023/10/31 03:37:43;;;;;;;37.40;22.67;;;;;;;;;;5075260;28;20441;-81
2023/10/31 03:40:09;;;;;;;41.33;24.47;;;;;;;;;;5075853;28;20485;-82
2023/10/31 03:42:36;;;;;;;32.17;22.30;;;;;;;;;;5074705;28;20459;-81
2023/10/31 03:45:02;;;;;;;29.17;19.37;;;;;;;;;;5075546;28;20466;-81
2023/10/31 03:47:30;;;;;;;35.33;20.73;;;;;;;;;;5075606;28;20467;-81
2023/10/31 03:49:56;;;;;;;33.30;20.97;;;;;;;;;;5074302;28;20472;-81
2023/10/31 03:52:23;;;;;;;28.43;18.83;;;;;;;;;;5075487;28;20475;-81
2023/10/31 03:54:49;;;;;;;43.67;22.10;;;;;;;;;;5075382;28;20466;-81
2023/10/31 03:57:16;;;;;;;33.23;20.63;;;;;;;;;;5075324;28;20459;-81
2023/10/31 03:59:42;;;;;;;40.30;22.67;;;;;;;;;;5074360;28;20478;-81
2023/10/31 04:02:09;;;;;;;32.43;20.37;;;;;;;;;;5075115;28;21004;-82
2023/10/31 04:04:37;;;;;;;29.60;19.77;;;;;;;;;;5074313;28;20434;-82
2023/10/31 04:07:03;;;;;;;33.37;20.40;;;;;;;;;;5075076;28;20550;-81
2023/10/31 04:09:29;;;;;;;33.00;21.00;;;;;;;;;;5075062;28;20446;-81
2023/10/31 04:11:56;;;;;;;39.33;23.30;;;;;;;;;;5075169;28;20437;-81
2023/10/31 04:14:23;;;;;;;38.90;21.57;;;;;;;;;;5074835;28;20470;-81
2023/10/31 04:16:50;;;;;;;34.53;21.07;;;;;;;;;;5074975;28;20433;-82
2023/10/31 04:19:18;;;;;;;36.10;21.30;;;;;;;;;;5075514;28;20944;-82
2023/10/31 04:21:45;;;;;;;41.07;21.20;;;;;;;;;;5075146;28;20438;-81
2023/10/31 04:24:12;;;;;;;35.70;21.40;;;;;;;;;;5075269;28;20433;-81
2023/10/31 04:26:39;;;;;;;34.90;19.67;;;;;;;;;;5074696;28;20498;-81
2023/10/31 04:29:06;;;;;;;36.63;20.23;;;;;;;;;;5074695;28;20443;-81
2023/10/31 04:31:32;;;;;;;37.67;22.17;;;;;;;;;;5074838;28;20420;-81
2023/10/31 04:33:58;;;;;;;29.23;18.87;;;;;;;;;;5075034;28;20440;-82
2023/10/31 04:36:24;;;;;;;35.60;19.17;;;;;;;;;;5074585;28;20440;-81
2023/10/31 04:38:52;;;;;;;28.27;17.30;;;;;;;;;;5074885;28;20821;-82
2023/10/31 04:41:19;;;;;;;32.07;18.57;;;;;;;;;;5072722;28;21050;-81
2023/10/31 04:43:45;;;;;;;27.17;16.07;;;;;;;;;;5074726;28;20462;-80
2023/10/31 04:46:11;;;;;;;28.90;17.43;;;;;;;;;;5074932;28;20421;-82
2023/10/31 04:48:38;;;;;;;32.17;17.77;;;;;;;;;;5074553;28;20466;-82
2023/10/31 04:51:04;;;;;;;28.80;17.33;;;;;;;;;;5074363;28;20446;-82
2023/10/31 04:53:32;;;;;;;20.77;14.10;;;;;;;;;;5073038;28;20491;-82
2023/10/31 04:56:00;;;;;;;29.23;17.13;;;;;;;;;;5074149;28;20436;-81
2023/10/31 04:58:27;;;;;;;24.07;15.70;;;;;;;;;;5074022;28;20477;-81
2023/10/31 05:00:53;;;;;;;24.67;15.50;;;;;;;;;;5074197;28;20456;-81
2023/10/31 05:03:19;;;;;;;33.33;20.30;;;;;;;;;;5072410;28;21000;-81
2023/10/31 05:05:46;;;;;;;31.70;20.67;;;;;;;;;;5074487;28;20439;-82
2023/10/31 05:08:12;;;;;;;32.20;21.30;;;;;;;;;;5074133;28;20449;-82
2023/10/31 05:10:38;;;;;;;34.90;23.23;;;;;;;;;;5074225;28;20443;-81
2023/10/31 05:13:06;;;;;;;37.93;23.80;;;;;;;;;;5073566;28;20549;-82
2023/10/31 05:15:32;;;;;;;37.73;23.57;;;;;;;;;;5073719;28;20441;-81
2023/10/31 05:17:59;;;;;;;34.10;22.77;;;;;;;;;;5071389;28;20441;-81
2023/10/31 05:20:25;;;;;;;36.07;22.50;;;;;;;;;;5073427;28;20461;-81
2023/10/31 05:22:51;;;;;;;39.53;24.97;;;;;;;;;;5073344;28;20438;-81
2023/10/31 05:25:18;;;;;;;36.23;22.47;;;;;;;;;;5073725;28;20459;-81
2023/10/31 05:27:45;;;;;;;30.20;21.17;;;;;;;;;;5071865;28;20441;-81
2023/10/31 05:30:15;;;;;;;35.17;22.73;;;;;;;;;;5073904;28;20518;-82
2023/10/31 05:32:41;;;;;;;29.07;20.37;;;;;;;;;;5073276;28;20517;-82
2023/10/31 05:35:08;;;;;;;29.47;22.50;;;;;;;;;;5073488;28;20440;-81
2023/10/31 05:37:35;;;;;;;32.37;20.70;;;;;;;;;;5073464;28;20470;-81
2023/10/31 05:40:01;;;;;;;19.90;13.67;;;;;;;;;;5073372;28;20479;-81
2023/10/31 05:42:28;;;;;;;15.13;10.30;;;;;;;;;;5073450;28;20437;-81
2023/10/31 05:44:54;;;;;;;6.50;4.97;;;;;;;;;;5073694;28;20546;-81
2023/10/31 05:47:22;;;;;;;3.87;3.30;;;;;;;;;;5071660;28;20441;-82
2023/10/31 05:49:50;;;;;;;2.60;2.10;;;;;;;;;;5073310;28;20781;-82
2023/10/31 05:52:16;;;;;;;1.90;1.70;;;;;;;;;;5073174;28;20441;-81
2023/10/31 05:54:43;;;;;;;4.90;1.50;;;;;;;;;;5073535;28;20549;-82
2023/10/31 05:57:09;;;;;;;1.70;1.43;;;;;;;;;;5071853;28;20485;-82
2023/10/31 05:59:35;;;;;;;3.80;1.30;;;;;;;;;;5072266;28;20439;-81
2023/10/31 06:02:02;;;;;;;1.50;1.40;;;;;;;;;;5073115;28;20538;-81
2023/10/31 06:04:29;;;;;;;0.80;0.80;;;;;;;;;;5073632;28;20469;-81
2023/10/31 06:06:58;;;;;;;1.10;1.00;;;;;;;;;;5073009;28;20825;-81
2023/10/31 06:09:25;;;;;;;0.70;0.60;;;;;;;;;;5073502;28;20512;-81
2023/10/31 06:11:51;;;;;;;0.90;0.90;;;;;;;;;;5054937;28;21053;-82
2023/10/31 06:14:17;;;;;;;6.93;1.80;;;;;;;;;;5073673;28;20467;-81
2023/10/31 06:16:46;;;;;;;0.80;0.80;;;;;;;;;;5073122;28;20473;-81
2023/10/31 06:19:13;;;;;;;1.00;1.00;;;;;;;;;;5073397;28;20857;-82
2023/10/31 06:21:40;;;;;;;1.27;0.80;;;;;;;;;;5072630;28;21067;-82
2023/10/31 06:24:07;;;;;;;0.63;0.63;;;;;;;;;;5073060;28;20533;-82
2023/10/31 06:26:34;;;;;;;1.27;0.80;;;;;;;;;;5071424;28;20517;-82
2023/10/31 06:29:00;;;;;;;0.60;0.60;;;;;;;;;;5073784;28;20862;-81
2023/10/31 06:31:26;;;;;;;0.80;0.80;;;;;;;;;;5076776;28;20450;-82
2023/10/31 06:33:52;;;;;;;2.67;1.27;;;;;;;;;;5077191;28;20826;-82
2023/10/31 06:36:19;;;;;;;0.90;0.90;;;;;;;;;;5075381;28;20288;-82
2023/10/31 06:38:47;;;;;;;3.13;1.20;;;;;;;;;;5077219;28;20814;-83
2023/10/31 06:41:13;;;;;;;2.60;1.30;;;;;;;;;;5075627;28;20475;-81
2023/10/31 06:43:39;;;;;;;1.63;1.30;;;;;;;;;;5076861;28;20467;-82
2023/10/31 06:46:06;;;;;;;2.23;1.07;;;;;;;;;;5076913;28;20421;-82
2023/10/31 06:48:33;;;;;;;2.00;1.37;;;;;;;;;;5076013;28;20838;-81
2023/10/31 06:50:59;;;;;;;1.80;1.40;;;;;;;;;;5075355;28;20919;-81
2023/10/31 06:53:26;;;;;;;1.73;1.00;;;;;;;;;;5076734;28;20462;-81
2023/10/31 06:55:54;;;;;;;1.87;1.40;;;;;;;;;;5076677;28;20454;-81
2023/10/31 06:58:20;;;;;;;2.40;1.40;;;;;;;;;;5074968;28;20437;-81
2023/10/31 07:00:47;;;;;;;1.20;1.10;;;;;;;;;;5076769;28;20478;-81
2023/10/31 07:03:15;;;;;;;2.03;1.53;;;;;;;;;;5074566;28;20995;-82
2023/10/31 07:05:42;;;;;;;1.87;1.73;;;;;;;;;;5075211;28;20474;-81
2023/10/31 07:08:08;;;;;;;2.57;1.30;;;;;;;;;;5076055;28;20444;-81
2023/10/31 07:10:35;;;;;;;2.10;1.27;;;;;;;;;;5076534;28;20446;-81
2023/10/31 07:13:03;;;;;;;4.77;1.30;;;;;;;;;;5076017;28;20470;-82
2023/10/31 07:15:29;;;;;;;1.07;1.07;;;;;;;;;;5075227;28;20465;-82
2023/10/31 07:17:55;;;;;;;1.43;1.33;;;;;;;;;;5075971;28;20956;-81
2023/10/31 07:20:22;;;;;;;1.87;1.43;;;;;;;;;;5074924;28;20474;-82
2023/10/31 07:22:48;;;;;;;1.30;1.20;;;;;;;;;;5075475;28;20492;-82
2023/10/31 07:25:14;;;;;;;0.90;0.90;;;;;;;;;;5074771;28;20513;-81
2023/10/31 07:27:41;;;;;;;2.10;1.30;;;;;;;;;;5075463;28;20497;-81
2023/10/31 07:30:09;;;;;;;3.90;1.13;;;;;;;;;;5076021;28;20933;-82
2023/10/31 07:32:36;;;;;;;1.57;1.27;;;;;;;;;;5075745;28;20979;-81
2023/10/31 07:35:02;;;;;;;1.00;0.90;;;;;;;;;;5076050;28;20459;-81
2023/10/31 07:37:29;;;;;;;0.90;0.73;;;;;;;;;;5076876;28;20500;-82
2023/10/31 07:39:55;;;;;;;0.97;0.97;;;;;;;;;;5073847;28;20443;-82
2023/10/31 07:42:21;;;;;;;1.57;1.10;;;;;;;;;;5076237;28;20477;-81
2023/10/31 07:44:49;;;;;;;2.20;1.00;;;;;;;;;;5075688;28;20463;-82
2023/10/31 07:47:17;;;;;;;1.83;0.97;;;;;;;;;;5075038;28;21024;-82
2023/10/31 07:49:43;;;;;;;1.47;0.80;;;;;;;;;;5075419;28;20455;-81
2023/10/31 07:52:09;;;;;;;1.53;1.23;;;;;;;;;;5075044;28;20819;-82
2023/10/31 07:54:36;;;;;;;1.07;0.83;;;;;;;;;;5075153;28;20467;-82
2023/10/31 07:57:02;;;;;;;1.27;1.00;;;;;;;;;;5075363;28;20467;-82
2023/10/31 07:59:28;;;;;;;1.20;1.10;;;;;;;;;;5073909;28;20492;-81
2023/10/31 08:01:55;;;;;;;2.30;1.00;;;;;;;;;;5075079;28;20844;-82
2023/10/31 08:04:23;;;;;;;2.73;1.27;;;;;;;;;;5075057;28;20968;-82
2023/10/31 08:06:49;;;;;;;1.43;0.90;;;;;;;;;;5074985;28;20462;-82
2023/10/31 08:09:16;;;;;;;2.03;0.90;;;;;;;;;;5075461;28;20439;-81
2023/10/31 08:11:42;;;;;;;1.43;1.20;;;;;;;;;;5074835;28;20516;-82
2023/10/31 08:14:10;;;;;;;1.73;1.13;;;;;;;;;;5075306;28;20490;-80
2023/10/31 08:16:36;;;;;;;3.37;1.23;;;;;;;;;;5074445;28;21010;-81
2023/10/31 08:19:02;;;;;;;1.77;1.43;;;;;;;;;;5075223;28;20803;-82
2023/10/31 08:21:34;;;;;;;1.87;1.57;;;;;;;;;;5074682;28;20471;-83
2023/10/31 08:24:01;;;;;;;2.37;1.47;;;;;;;;;;5074983;28;20463;-83
2023/10/31 08:26:27;;;;;;;3.63;2.17;;;;;;;;;;5074897;28;20421;-81
2023/10/31 08:28:53;;;;;;;2.47;1.90;;;;;;;;;;5074987;28;20446;-82
2023/10/31 08:31:20;;;;;;;3.10;1.63;;;;;;;;;;5074394;28;20430;-82
2023/10/31 08:33:46;;;;;;;8.17;1.50;;;;;;;;;;5074787;28;20454;-82
2023/10/31 08:36:12;;;;;;;1.77;1.47;;;;;;;;;;5074665;28;20817;-82
2023/10/31 08:38:41;;;;;;;2.00;1.57;;;;;;;;;;5074229;28;20467;-82
2023/10/31 08:41:07;;;;;;;4.33;1.17;;;;;;;;;;5074752;28;20475;-84
2023/10/31 08:43:34;;;;;;;1.40;1.30;;;;;;;;;;5073878;28;20466;-82
2023/10/31 08:46:00;;;;;;;1.57;1.30;;;;;;;;;;5074651;28;20409;-81
2023/10/31 08:48:27;;;;;;;3.77;1.40;;;;;;;;;;5074142;28;20467;-82
2023/10/31 08:50:53;;;;;;;3.90;1.43;;;;;;;;;;5074437;28;20438;-81
2023/10/31 08:53:19;;;;;;;5.50;1.40;;;;;;;;;;5073333;28;20471;-81
2023/10/31 08:55:47;;;;;;;1.83;1.23;;;;;;;;;;5073819;28;20443;-81
2023/10/31 08:58:14;;;;;;;1.47;1.07;;;;;;;;;;5073580;28;20463;-81
2023/10/31 09:00:40;;;;;;;1.40;1.30;;;;;;;;;;5073761;28;20486;-81
2023/10/31 09:03:07;;;;;;;3.40;1.40;;;;;;;;;;5072491;28;20532;-81
2023/10/31 09:05:33;;;;;;;2.20;1.80;;;;;;;;;;5074142;28;20841;-82
2023/10/31 09:07:59;;;;;;;1.30;1.20;;;;;;;;;;5073589;28;20470;-81
2023/10/31 09:10:26;;;;;;;1.70;1.60;;;;;;;;;;5074131;28;20812;-82
2023/10/31 09:12:54;;;;;;;2.10;1.87;;;;;;;;;;5073078;28;20442;-81
2023/10/31 09:15:21;;;;;;;3.63;1.60;;;;;;;;;;5073822;28;20459;-82
2023/10/31 09:17:47;;;;;;;3.80;1.50;;;;;;;;;;5073520;28;21015;-83
2023/10/31 09:20:14;;;;;;;2.80;1.80;;;;;;;;;;5073998;28;20526;-83
2023/10/31 09:22:40;;;;;;;1.97;1.70;;;;;;;;;;5072202;28;20475;-81
2023/10/31 09:25:07;;;;;;;1.53;1.43;;;;;;;;;;5073545;28;20455;-81
2023/10/31 09:27:34;;;;;;;3.13;1.97;;;;;;;;;;5072437;28;20448;-82
2023/10/31 09:30:01;;;;;;;4.60;2.10;;;;;;;;;;5073496;28;20447;-81
2023/10/31 09:32:28;;;;;;;3.07;2.30;;;;;;;;;;5073143;28;20471;-82
2023/10/31 09:34:54;;;;;;;2.63;1.80;;;;;;;;;;5074026;28;20482;-81
2023/10/31 09:37:20;;;;;;;2.10;1.90;;;;;;;;;;5073112;28;20988;-81
2023/10/31 09:39:47;;;;;;;3.20;2.23;;;;;;;;;;5073999;28;20439;-80
2023/10/31 09:42:14;;;;;;;3.50;2.17;;;;;;;;;;5072614;28;20482;-80
2023/10/31 09:44:42;;;;;;;2.70;2.40;;;;;;;;;;5072121;28;20459;-80
2023/10/31 09:47:10;;;;;;;4.10;2.80;;;;;;;;;;5073440;28;20490;-82
2023/10/31 09:49:36;;;;;;;3.77;2.57;;;;;;;;;;5073409;28;20928;-82
2023/10/31 09:52:03;;;;;;;2.60;2.40;;;;;;;;;;5072978;28;20470;-82
2023/10/31 09:54:30;;;;;;;4.10;2.77;;;;;;;;;;5073585;28;20520;-82
2023/10/31 09:56:56;;;;;;;5.80;3.00;;;;;;;;;;5073017;28;20494;-82
2023/10/31 09:59:23;;;;;;;4.90;2.57;;;;;;;;;;5073498;28;20435;-81
2023/10/31 10:01:49;;;;;;;4.67;3.03;;;;;;;;;;5072879;28;20471;-83
2023/10/31 10:04:19;;;;;;;3.50;3.20;;;;;;;;;;5078222;28;20463;-81
2023/10/31 10:06:52;;;;;;;3.43;3.13;;;;;;;;;;5078303;28;20466;-81
2023/10/31 10:09:19;;;;;;;5.87;3.73;;;;;;;;;;5080288;28;20437;-81
2023/10/31 10:11:45;;;;;;;5.30;3.90;;;;;;;;;;5078717;28;20454;-81
2023/10/31 10:14:13;;;;;;;3.63;3.33;;;;;;;;;;5079060;28;20463;-81
2023/10/31 10:16:39;;;;;;;4.47;4.17;;;;;;;;;;5077980;28;20968;-81
2023/10/31 10:19:16;;;;;;;4.37;3.20;;;;;;;;;;5079552;28;20438;-80
2023/10/31 10:21:49;;;;;;;4.07;3.67;;;;;;;;;;5079622;28;20462;-80
2023/10/31 10:24:15;;;;;;;4.13;3.00;;;;;;;;;;5082335;28;20452;-81
2023/10/31 10:26:41;;;;;;;4.33;3.93;;;;;;;;;;5079688;28;20473;-81
2023/10/31 10:29:08;;;;;;;4.93;4.00;;;;;;;;;;5080013;28;20807;-81
2023/10/31 10:31:35;;;;;;;8.73;3.50;;;;;;;;;;5079361;28;20461;-81
2023/10/31 10:34:02;;;;;;;3.90;3.10;;;;;;;;;;5078847;28;20461;-81
2023/10/31 10:36:28;;;;;;;4.07;3.43;;;;;;;;;;5079832;28;20443;-81
2023/10/31 10:38:57;;;;;;;3.60;3.07;;;;;;;;;;5079982;28;20465;-81
2023/10/31 10:41:26;;;;;;;4.90;3.60;;;;;;;;;;5079101;28;20456;-81
2023/10/31 10:43:54;;;;;;;5.00;3.20;;;;;;;;;;5079994;28;20520;-82
2023/10/31 10:46:22;;;;;;;3.87;3.17;;;;;;;;;;5079152;28;21066;-80
2023/10/31 10:48:50;;;;;;;3.93;3.10;;;;;;;;;;5062046;28;20458;-81
2023/10/31 10:51:21;;;;;;;3.30;2.70;;;;;;;;;;5079940;28;20415;-80
2023/10/31 10:53:50;;;;;;;4.40;3.30;;;;;;;;;;5079965;28;20463;-81
2023/10/31 10:56:22;;;;;;;4.30;3.40;;;;;;;;;;5079065;28;20929;-82
2023/10/31 10:58:52;;;;;;;4.17;3.60;;;;;;;;;;5079915;28;20415;-82
2023/10/31 11:01:19;;;;;;;4.13;3.27;;;;;;;;;;5077794;28;20514;-82
2023/10/31 11:03:46;;;;;;;5.23;3.73;;;;;;;;;;5079459;28;20450;-82
2023/10/31 11:06:13;;;;;;;3.83;3.10;;;;;;;;;;5079497;28;20450;-82
2023/10/31 11:08:40;;;;;;;3.20;2.90;;;;;;;;;;5078001;28;20462;-82
2023/10/31 11:11:09;;;;;;;4.60;2.60;;;;;;;;;;5078632;28;20417;-80
2023/10/31 11:13:37;;;;;;;4.07;3.67;;;;;;;;;;5078842;28;20527;-82
2023/10/31 11:16:08;;;;;;;4.87;3.37;;;;;;;;;;5075735;28;20821;-82
2023/10/31 11:18:35;;;;;;;4.50;3.90;;;;;;;;;;5075856;28;20497;-82
2023/10/31 11:21:01;;;;;;;8.37;4.80;;;;;;;;;;5076165;28;20416;-83
2023/10/31 11:23:28;;;;;;;4.37;3.97;;;;;;;;;;5075571;28;20492;-82
2023/10/31 11:25:54;;;;;;;5.30;3.60;;;;;;;;;;5075995;28;20442;-81
2023/10/31 11:28:21;;;;;;;6.20;3.47;;;;;;;;;;5075344;28;20470;-81
2023/10/31 11:30:50;;;;;;;10.33;3.90;;;;;;;;;;5058275;28;20435;-82
2023/10/31 11:33:19;;;;;;;10.57;6.70;;;;;;;;;;5075673;28;20441;-80
2023/10/31 11:35:50;;;;;;;8.27;5.60;;;;;;;;;;5074612;28;20471;-82
2023/10/31 11:38:18;;;;;;;14.13;11.67;;;;;;;;;;5075448;28;20471;-82
2023/10/31 11:40:59;;;;;;;18.87;12.33;;;;;;;;;;5075655;28;20420;-82
2023/10/31 11:43:25;;;;;;;34.27;19.30;;;;;;;;;;5075303;28;20453;-82
2023/10/31 11:45:57;;;;;;;24.90;16.60;;;;;;;;;;5074874;28;20410;-81
2023/10/31 11:48:45;;;;;;;22.80;15.13;;;;;;;;;;5074461;28;20849;-80
2023/10/31 11:51:12;;;;;;;30.67;18.30;;;;;;;;;;5076121;28;20402;-80
2023/10/31 11:53:39;;;;;;;13.40;6.80;;;;;;;;;;5075077;28;20449;-81
2023/10/31 11:56:06;;;;;;;9.20;6.70;;;;;;;;;;5075949;28;20418;-82
2023/10/31 11:58:32;;;;;;;12.93;8.80;;;;;;;;;;5075168;28;20449;-82
2023/10/31 12:01:03;;;;;;;11.73;6.73;;;;;;;;;;5075305;28;20447;-81
2023/10/31 12:03:37;;;;;;;15.83;12.27;;;;;;;;;;5073562;28;20821;-81
2023/10/31 12:06:04;;;;;;;21.80;15.40;;;;;;;;;;5075659;28;20402;-81
2023/10/31 12:08:31;;;;;;;13.70;10.50;;;;;;;;;;5075027;28;20470;-82
2023/10/31 12:11:04;;;;;;;10.00;6.40;;;;;;;;;;5075477;28;20441;-81
2023/10/31 12:13:31;;;;;;;4.70;3.97;;;;;;;;;;5075202;28;20477;-82
2023/10/31 12:15:57;;;;;;;2.03;1.80;;;;;;;;;;5075523;28;20448;-82
2023/10/31 12:18:25;;;;;;;1.90;0.70;;;;;;;;;;5075146;28;20995;-82
2023/10/31 12:20:52;;;;;;;1.10;0.90;;;;;;;;;;5075801;28;20425;-83
2023/10/31 12:23:19;;;;;;;4.63;1.10;;;;;;;;;;5073421;28;20450;-82
2023/10/31 12:25:48;;;;;;;1.63;0.70;;;;;;;;;;5075318;28;20438;-82
2023/10/31 12:28:17;;;;;;;4.70;0.80;;;;;;;;;;5074303;28;20851;-82
2023/10/31 12:30:45;;;;;;;2.40;0.80;;;;;;;;;;5074659;28;20922;-82
2023/10/31 12:33:12;;;;;;;0.90;0.70;;;;;;;;;;5074079;28;20887;-82
2023/10/31 12:35:40;;;;;;;0.80;0.80;;;;;;;;;;5074827;28;20461;-80
2023/10/31 12:38:07;;;;;;;5.13;1.40;;;;;;;;;;5073076;28;20548;-81
2023/10/31 12:40:34;;;;;;;2.30;1.20;;;;;;;;;;5074749;28;20438;-82
2023/10/31 12:43:01;;;;;;;3.27;1.20;;;;;;;;;;5072643;28;20471;-82
2023/10/31 12:45:27;;;;;;;2.00;1.07;;;;;;;;;;5074637;28;20433;-81
2023/10/31 12:48:04;;;;;;;3.60;1.10;;;;;;;;;;5074077;28;20446;-82
2023/10/31 12:50:30;;;;;;;2.60;1.20;;;;;;;;;;5056353;28;20458;-81
2023/10/31 12:52:59;;;;;;;0.90;0.70;;;;;;;;;;5073856;28;20463;-82
2023/10/31 12:55:26;;;;;;;1.63;0.93;;;;;;;;;;5072919;28;21046;-82
2023/10/31 12:57:53;;;;;;;2.27;1.10;;;;;;;;;;5072442;28;20562;-82
2023/10/31 13:00:25;;;;;;;0.97;0.77;;;;;;;;;;5074217;28;20496;-82
2023/10/31 13:02:52;;;;;;;2.70;1.00;;;;;;;;;;5072679;28;20544;-82
2023/10/31 13:05:19;;;;;;;1.37;0.70;;;;;;;;;;5074627;28;20455;-82
2023/10/31 13:07:48;;;;;;;3.50;0.80;;;;;;;;;;5068703;28;20828;-82
2023/10/31 13:10:17;;;;;;;1.60;1.17;;;;;;;;;;5073615;28;20823;-82
2023/10/31 13:12:44;;;;;;;1.70;1.20;;;;;;;;;;5055694;28;20467;-82
2023/10/31 13:15:11;;;;;;;1.60;1.10;;;;;;;;;;5073575;28;20459;-82
2023/10/31 13:17:38;;;;;;;1.37;0.93;;;;;;;;;;5072248;28;20533;-83
2023/10/31 13:20:06;;;;;;;1.67;0.90;;;;;;;;;;5074062;28;20447;-82
2023/10/31 13:22:32;;;;;;;3.20;1.03;;;;;;;;;;5073251;28;20463;-82
2023/10/31 13:24:58;;;;;;;3.13;1.00;;;;;;;;;;5072294;28;20462;-82
2023/10/31 13:27:26;;;;;;;1.37;0.90;;;;;;;;;;5072066;28;20603;-82
2023/10/31 13:29:53;;;;;;;1.23;1.10;;;;;;;;;;5073800;28;20431;-82
2023/10/31 13:32:21;;;;;;;1.47;1.00;;;;;;;;;;5073376;28;20471;-82
2023/10/31 13:34:47;;;;;;;0.67;0.67;;;;;;;;;;5074113;28;20438;-81
2023/10/31 13:37:14;;;;;;;2.50;0.87;;;;;;;;;;5073159;28;20940;-84
2023/10/31 13:39:40;;;;;;;1.90;1.13;;;;;;;;;;5073354;28;20418;-85
2023/10/31 13:42:07;;;;;;;1.90;1.10;;;;;;;;;;5054748;28;20447;-83
2023/10/31 13:44:34;;;;;;;3.40;1.33;;;;;;;;;;5072263;28;20538;-83
2023/10/31 13:47:01;;;;;;;1.10;1.00;;;;;;;;;;5069686;28;20447;-83
2023/10/31 13:49:27;;;;;;;1.53;0.90;;;;;;;;;;5071352;28;20451;-83
2023/10/31 13:51:54;;;;;;;2.93;1.30;;;;;;;;;;5073260;28;20469;-83
2023/10/31 13:54:20;;;;;;;2.90;1.10;;;;;;;;;;5072881;28;20485;-84
2023/10/31 13:56:47;;;;;;;2.63;1.20;;;;;;;;;;5073559;28;20442;-83
2023/10/31 13:59:14;;;;;;;3.10;1.30;;;;;;;;;;5073124;28;20467;-83
2023/10/31 14:01:42;;;;;;;1.63;1.13;;;;;;;;;;5073317;28;20418;-82
2023/10/31 14:04:09;;;;;;;2.73;1.50;;;;;;;;;;5072714;28;20853;-82
2023/10/31 14:06:35;;;;;;;7.37;2.00;;;;;;;;;;5073240;28;20951;-83
2023/10/31 14:09:04;;;;;;;4.60;2.07;;;;;;;;;;5072867;28;20479;-83
2023/10/31 14:11:30;;;;;;;8.13;2.17;;;;;;;;;;5074975;28;20880;-83
2023/10/31 14:13:59;;;;;;;3.93;1.40;;;;;;;;;;5072761;28;20471;-83
2023/10/31 14:16:26;;;;;;;3.80;1.53;;;;;;;;;;5073502;28;20824;-83
2023/10/31 14:18:54;;;;;;;7.60;1.67;;;;;;;;;;5072679;28;20477;-83
2023/10/31 14:21:20;;;;;;;3.80;1.50;;;;;;;;;;5073047;28;20414;-82
2023/10/31 14:23:53;;;;;;;5.30;1.40;;;;;;;;;;5072596;28;20502;-83
2023/10/31 14:26:19;;;;;;;2.10;1.20;;;;;;;;;;5073348;28;20423;-83
2023/10/31 14:28:46;;;;;;;3.50;1.83;;;;;;;;;;5072775;28;20482;-83
2023/10/31 14:31:12;;;;;;;13.90;3.63;;;;;;;;;;5073201;28;20465;-83